sensor_id;sensor_type;location;lat;lon;timestamp;temperature;humidity
22850;DHT22;11591;44.792;10.358;2023-03-14T00:01:11;13.40;99.90
22850;DHT22;11591;44.792;10.358;2023-03-14T00:03:37;13.30;99.90
22850;DHT22;11591;44.792;10.358;2023-03-14T00:06:04;13.30;99.90
22850;DHT22;11591;44.792;10.358;2023-03-14T00:08:29;13.20;99.90
22850;DHT22;11591;44.792;10.358;2023-03-14T00:10:55;13.20;99.90
22850;DHT22;11591;44.792;10.358;2023-03-14T00:13:23;13.20;99.90
22850;DHT22;11591;44.792;10.358;2023-03-14T00:15:49;13.20;99.90
22850;DHT22;11591;44.792;10.358;2023-03-14T00:18:15;13.20;99.90
22850;DHT22;11591;44.792;10.358;2023-03-14T00:20:41;13.20;99.90
22850;DHT22;11591;44.792;10.358;2023-03-14T00:23:06;13.20;99.90
22850;DHT22;11591;44.792;10.358;2023-03-14T00:25:32;13.30;99.90
22850;DHT22;11591;44.792;10.358;2023-03-14T00:27:58;13.20;99.90
22850;DHT22;11591;44.792;10.358;2023-03-14T00:30:24;13.30;99.90
22850;DHT22;11591;44.792;10.358;2023-03-14T00:32:49;13.20;99.90
22850;DHT22;11591;44.792;10.358;2023-03-14T00:35:15;13.10;99.90
22850;DHT22;11591;44.792;10.358;2023-03-14T00:37:41;13.10;99.90
22850;DHT22;11591;44.792;10.358;2023-03-14T00:40:08;13.00;99.90
22850;DHT22;11591;44.792;10.358;2023-03-14T00:42:34;13.00;99.90
22850;DHT22;11591;44.792;10.358;2023-03-14T00:45:00;13.00;99.90
22850;DHT22;11591;44.792;10.358;2023-03-14T00:47:26;12.90;99.90
22850;DHT22;11591;44.792;10.358;2023-03-14T00:49:52;12.80;99.90
22850;DHT22;11591;44.792;10.358;2023-03-14T00:52:18;12.80;99.90
22850;DHT22;11591;44.792;10.358;2023-03-14T00:54:44;12.70;99.90
22850;DHT22;11591;44.792;10.358;2023-03-14T00:57:10;12.70;99.90
22850;DHT22;11591;44.792;10.358;2023-03-14T00:59:35;12.70;99.90
22850;DHT22;11591;44.792;10.358;2023-03-14T01:02:01;12.70;99.90
22850;DHT22;11591;44.792;10.358;2023-03-14T01:04:27;12.70;99.90
22850;DHT22;11591;44.792;10.358;2023-03-14T01:06:54;12.60;99.90
22850;DHT22;11591;44.792;10.358;2023-03-14T01:09:20;12.60;99.90
22850;DHT22;11591;44.792;10.358;2023-03-14T01:11:47;12.60;99.90
22850;DHT22;11591;44.792;10.358;2023-03-14T01:14:14;12.60;99.90
22850;DHT22;11591;44.792;10.358;2023-03-14T01:16:40;12.60;99.90
22850;DHT22;11591;44.792;10.358;2023-03-14T01:19:06;12.50;99.90
22850;DHT22;11591;44.792;10.358;2023-03-14T01:21:34;12.50;99.90
22850;DHT22;11591;44.792;10.358;2023-03-14T01:24:01;12.40;99.90
22850;DHT22;11591;44.792;10.358;2023-03-14T01:26:31;12.40;99.90
22850;DHT22;11591;44.792;10.358;2023-03-14T01:28:57;12.40;99.90
22850;DHT22;11591;44.792;10.358;2023-03-14T01:31:24;12.30;99.90
22850;DHT22;11591;44.792;10.358;2023-03-14T01:33:50;12.30;99.90
22850;DHT22;11591;44.792;10.358;2023-03-14T01:36:16;12.30;99.90
22850;DHT22;11591;44.792;10.358;2023-03-14T01:38:43;12.40;99.90
22850;DHT22;11591;44.792;10.358;2023-03-14T01:41:29;12.30;99.90
22850;DHT22;11591;44.792;10.358;2023-03-14T01:43:57;12.30;99.90
22850;DHT22;11591;44.792;10.358;2023-03-14T01:46:30;12.30;99.90
22850;DHT22;11591;44.792;10.358;2023-03-14T01:54:56;12.20;99.90
22850;DHT22;11591;44.792;10.358;2023-03-14T01:57:36;12.20;99.90
22850;DHT22;11591;44.792;10.358;2023-03-14T02:00:17;12.10;99.90
22850;DHT22;11591;44.792;10.358;2023-03-14T02:02:48;12.20;99.90
22850;DHT22;11591;44.792;10.358;2023-03-14T02:05:21;12.20;99.90
22850;DHT22;11591;44.792;10.358;2023-03-14T02:08:11;12.10;99.90
22850;DHT22;11591;44.792;10.358;2023-03-14T02:10:48;12.20;99.90
22850;DHT22;11591;44.792;10.358;2023-03-14T02:13:21;12.20;99.90
22850;DHT22;11591;44.792;10.358;2023-03-14T02:16:15;12.20;99.90
22850;DHT22;11591;44.792;10.358;2023-03-14T02:19:26;12.20;99.90
22850;DHT22;11591;44.792;10.358;2023-03-14T02:22:11;12.10;99.90
22850;DHT22;11591;44.792;10.358;2023-03-14T02:25:14;12.10;99.90
22850;DHT22;11591;44.792;10.358;2023-03-14T02:27:42;12.10;99.90
22850;DHT22;11591;44.792;10.358;2023-03-14T02:30:15;12.10;99.90
22850;DHT22;11591;44.792;10.358;2023-03-14T02:32:48;12.10;99.90
22850;DHT22;11591;44.792;10.358;2023-03-14T02:35:19;12.10;99.90
22850;DHT22;11591;44.792;10.358;2023-03-14T02:37:56;12.00;99.90
22850;DHT22;11591;44.792;10.358;2023-03-14T02:40:27;12.10;99.90
22850;DHT22;11591;44.792;10.358;2023-03-14T02:42:53;12.00;99.90
22850;DHT22;11591;44.792;10.358;2023-03-14T02:47:54;12.00;99.90
22850;DHT22;11591;44.792;10.358;2023-03-14T02:50:26;12.00;99.90
22850;DHT22;11591;44.792;10.358;2023-03-14T02:52:56;12.00;99.90
22850;DHT22;11591;44.792;10.358;2023-03-14T02:55:23;12.00;99.90
22850;DHT22;11591;44.792;10.358;2023-03-14T02:57:52;12.10;99.90
22850;DHT22;11591;44.792;10.358;2023-03-14T03:00:18;12.00;99.90
22850;DHT22;11591;44.792;10.358;2023-03-14T03:02:45;12.10;99.90
22850;DHT22;11591;44.792;10.358;2023-03-14T03:05:10;12.00;99.90
22850;DHT22;11591;44.792;10.358;2023-03-14T03:07:36;12.10;99.90
22850;DHT22;11591;44.792;10.358;2023-03-14T03:10:04;12.00;99.90
22850;DHT22;11591;44.792;10.358;2023-03-14T03:12:30;12.00;99.90
22850;DHT22;11591;44.792;10.358;2023-03-14T03:14:56;12.00;99.90
22850;DHT22;11591;44.792;10.358;2023-03-14T03:17:22;11.90;99.90
22850;DHT22;11591;44.792;10.358;2023-03-14T03:19:48;11.90;99.90
22850;DHT22;11591;44.792;10.358;2023-03-14T03:22:13;12.00;99.90
22850;DHT22;11591;44.792;10.358;2023-03-14T03:24:40;11.90;99.90
22850;DHT22;11591;44.792;10.358;2023-03-14T03:27:06;11.90;99.90
22850;DHT22;11591;44.792;10.358;2023-03-14T03:29:32;11.90;99.90
22850;DHT22;11591;44.792;10.358;2023-03-14T03:31:58;11.90;99.90
22850;DHT22;11591;44.792;10.358;2023-03-14T03:34:24;11.90;99.90
22850;DHT22;11591;44.792;10.358;2023-03-14T03:36:52;11.90;99.90
22850;DHT22;11591;44.792;10.358;2023-03-14T03:39:18;11.90;99.90
22850;DHT22;11591;44.792;10.358;2023-03-14T03:41:46;11.90;99.90
22850;DHT22;11591;44.792;10.358;2023-03-14T03:44:13;11.90;99.90
22850;DHT22;11591;44.792;10.358;2023-03-14T03:46:39;11.80;99.90
22850;DHT22;11591;44.792;10.358;2023-03-14T03:49:08;11.80;99.90
22850;DHT22;11591;44.792;10.358;2023-03-14T03:51:34;11.70;99.90
22850;DHT22;11591;44.792;10.358;2023-03-14T03:54:00;11.60;99.90
22850;DHT22;11591;44.792;10.358;2023-03-14T03:56:32;11.50;99.90
22850;DHT22;11591;44.792;10.358;2023-03-14T03:58:59;11.40;99.90
22850;DHT22;11591;44.792;10.358;2023-03-14T04:01:25;11.30;99.90
22850;DHT22;11591;44.792;10.358;2023-03-14T04:03:54;11.20;99.90
22850;DHT22;11591;44.792;10.358;2023-03-14T04:06:20;11.30;99.90
22850;DHT22;11591;44.792;10.358;2023-03-14T04:08:48;11.20;99.90
22850;DHT22;11591;44.792;10.358;2023-03-14T04:11:34;11.30;99.90
22850;DHT22;11591;44.792;10.358;2023-03-14T04:14:20;11.30;99.90
22850;DHT22;11591;44.792;10.358;2023-03-14T04:16:48;11.40;99.90
22850;DHT22;11591;44.792;10.358;2023-03-14T04:19:18;11.40;99.90
22850;DHT22;11591;44.792;10.358;2023-03-14T04:21:45;11.40;99.90
22850;DHT22;11591;44.792;10.358;2023-03-14T04:24:13;11.50;99.90
22850;DHT22;11591;44.792;10.358;2023-03-14T04:26:40;11.50;99.90
22850;DHT22;11591;44.792;10.358;2023-03-14T04:29:08;11.60;99.90
22850;DHT22;11591;44.792;10.358;2023-03-14T04:31:34;11.60;99.90
22850;DHT22;11591;44.792;10.358;2023-03-14T04:34:00;11.60;99.90
22850;DHT22;11591;44.792;10.358;2023-03-14T04:36:33;11.60;99.90
22850;DHT22;11591;44.792;10.358;2023-03-14T04:39:03;11.60;99.90
22850;DHT22;11591;44.792;10.358;2023-03-14T04:41:30;11.60;99.90
22850;DHT22;11591;44.792;10.358;2023-03-14T04:43:57;11.60;99.90
22850;DHT22;11591;44.792;10.358;2023-03-14T04:46:23;11.60;99.90
22850;DHT22;11591;44.792;10.358;2023-03-14T04:48:49;11.60;99.90
22850;DHT22;11591;44.792;10.358;2023-03-14T04:51:17;11.60;99.90
22850;DHT22;11591;44.792;10.358;2023-03-14T04:53:43;11.60;99.90
22850;DHT22;11591;44.792;10.358;2023-03-14T04:56:11;11.70;99.90
22850;DHT22;11591;44.792;10.358;2023-03-14T04:58:39;11.70;99.90
22850;DHT22;11591;44.792;10.358;2023-03-14T05:01:06;11.50;99.90
22850;DHT22;11591;44.792;10.358;2023-03-14T05:03:49;11.50;99.90
22850;DHT22;11591;44.792;10.358;2023-03-14T05:06:27;11.40;99.90
22850;DHT22;11591;44.792;10.358;2023-03-14T05:09:21;11.50;99.90
22850;DHT22;11591;44.792;10.358;2023-03-14T05:11:49;11.40;99.90
22850;DHT22;11591;44.792;10.358;2023-03-14T05:14:35;11.20;99.90
22850;DHT22;11591;44.792;10.358;2023-03-14T05:17:32;10.70;99.90
22850;DHT22;11591;44.792;10.358;2023-03-14T05:20:23;10.60;99.90
22850;DHT22;11591;44.792;10.358;2023-03-14T05:23:09;10.50;99.90
22850;DHT22;11591;44.792;10.358;2023-03-14T05:25:53;10.50;99.90
22850;DHT22;11591;44.792;10.358;2023-03-14T05:28:48;10.30;99.90
22850;DHT22;11591;44.792;10.358;2023-03-14T05:31:40;10.10;99.90
22850;DHT22;11591;44.792;10.358;2023-03-14T05:34:24;10.00;99.90
22850;DHT22;11591;44.792;10.358;2023-03-14T05:37:11;9.80;99.90
22850;DHT22;11591;44.792;10.358;2023-03-14T05:39:57;9.70;99.90
22850;DHT22;11591;44.792;10.358;2023-03-14T05:42:49;9.50;99.90
22850;DHT22;11591;44.792;10.358;2023-03-14T05:45:29;9.70;99.90
22850;DHT22;11591;44.792;10.358;2023-03-14T05:47:55;9.90;99.90
22850;DHT22;11591;44.792;10.358;2023-03-14T05:50:39;10.00;99.90
22850;DHT22;11591;44.792;10.358;2023-03-14T05:53:27;10.10;99.90
22850;DHT22;11591;44.792;10.358;2023-03-14T05:56:13;10.20;99.90
22850;DHT22;11591;44.792;10.358;2023-03-14T05:58:54;10.20;99.90
22850;DHT22;11591;44.792;10.358;2023-03-14T06:01:37;10.30;99.90
22850;DHT22;11591;44.792;10.358;2023-03-14T06:04:12;10.40;99.90
22850;DHT22;11591;44.792;10.358;2023-03-14T06:06:39;10.20;99.90
22850;DHT22;11591;44.792;10.358;2023-03-14T06:09:07;10.10;99.90
22850;DHT22;11591;44.792;10.358;2023-03-14T06:11:36;10.00;99.90
22850;DHT22;11591;44.792;10.358;2023-03-14T06:14:03;10.00;99.90
22850;DHT22;11591;44.792;10.358;2023-03-14T06:16:29;10.10;99.90
22850;DHT22;11591;44.792;10.358;2023-03-14T06:18:55;10.30;99.90
22850;DHT22;11591;44.792;10.358;2023-03-14T06:21:22;10.40;99.90
22850;DHT22;11591;44.792;10.358;2023-03-14T06:23:49;10.50;99.90
22850;DHT22;11591;44.792;10.358;2023-03-14T06:26:15;10.60;99.90
22850;DHT22;11591;44.792;10.358;2023-03-14T06:28:42;10.70;99.90
22850;DHT22;11591;44.792;10.358;2023-03-14T06:31:08;10.60;99.90
22850;DHT22;11591;44.792;10.358;2023-03-14T06:33:42;10.60;99.90
22850;DHT22;11591;44.792;10.358;2023-03-14T06:36:09;10.70;99.90
22850;DHT22;11591;44.792;10.358;2023-03-14T06:38:37;10.70;99.90
22850;DHT22;11591;44.792;10.358;2023-03-14T06:41:05;10.70;99.90
22850;DHT22;11591;44.792;10.358;2023-03-14T06:43:36;10.70;99.90
22850;DHT22;11591;44.792;10.358;2023-03-14T06:46:04;10.80;99.90
22850;DHT22;11591;44.792;10.358;2023-03-14T06:48:31;10.80;99.90
22850;DHT22;11591;44.792;10.358;2023-03-14T06:50:58;10.90;99.90
22850;DHT22;11591;44.792;10.358;2023-03-14T06:53:23;11.00;99.90
22850;DHT22;11591;44.792;10.358;2023-03-14T06:55:50;11.00;99.90
22850;DHT22;11591;44.792;10.358;2023-03-14T06:58:17;11.10;99.90
22850;DHT22;11591;44.792;10.358;2023-03-14T07:00:44;11.10;99.90
22850;DHT22;11591;44.792;10.358;2023-03-14T07:03:14;11.10;99.90
22850;DHT22;11591;44.792;10.358;2023-03-14T07:05:43;11.10;99.90
22850;DHT22;11591;44.792;10.358;2023-03-14T07:08:08;11.20;99.90
22850;DHT22;11591;44.792;10.358;2023-03-14T07:10:34;11.20;99.90
22850;DHT22;11591;44.792;10.358;2023-03-14T07:13:00;11.30;99.90
22850;DHT22;11591;44.792;10.358;2023-03-14T07:15:29;11.30;99.90
22850;DHT22;11591;44.792;10.358;2023-03-14T07:18:00;11.30;99.90
22850;DHT22;11591;44.792;10.358;2023-03-14T07:20:28;11.40;99.90
22850;DHT22;11591;44.792;10.358;2023-03-14T07:22:55;11.40;99.90
22850;DHT22;11591;44.792;10.358;2023-03-14T07:25:33;11.40;99.90
22850;DHT22;11591;44.792;10.358;2023-03-14T07:27:59;11.40;99.90
22850;DHT22;11591;44.792;10.358;2023-03-14T07:30:25;11.40;99.90
22850;DHT22;11591;44.792;10.358;2023-03-14T07:32:51;11.40;99.90
22850;DHT22;11591;44.792;10.358;2023-03-14T07:35:17;11.50;99.90
22850;DHT22;11591;44.792;10.358;2023-03-14T07:37:43;11.50;99.90
22850;DHT22;11591;44.792;10.358;2023-03-14T07:40:11;11.60;99.90
22850;DHT22;11591;44.792;10.358;2023-03-14T07:42:41;11.60;99.90
22850;DHT22;11591;44.792;10.358;2023-03-14T07:45:14;11.60;99.90
22850;DHT22;11591;44.792;10.358;2023-03-14T07:47:39;11.70;99.90
22850;DHT22;11591;44.792;10.358;2023-03-14T07:50:06;11.70;99.90
22850;DHT22;11591;44.792;10.358;2023-03-14T07:52:32;11.70;99.90
22850;DHT22;11591;44.792;10.358;2023-03-14T07:54:58;11.80;99.90
22850;DHT22;11591;44.792;10.358;2023-03-14T07:57:23;11.80;99.90
22850;DHT22;11591;44.792;10.358;2023-03-14T07:59:50;11.90;99.90
22850;DHT22;11591;44.792;10.358;2023-03-14T08:02:16;12.00;99.90
22850;DHT22;11591;44.792;10.358;2023-03-14T08:04:43;12.10;99.90
22850;DHT22;11591;44.792;10.358;2023-03-14T08:07:10;12.10;99.90
22850;DHT22;11591;44.792;10.358;2023-03-14T08:09:35;12.20;99.90
22850;DHT22;11591;44.792;10.358;2023-03-14T08:12:01;12.30;99.90
22850;DHT22;11591;44.792;10.358;2023-03-14T08:14:27;12.30;99.90
22850;DHT22;11591;44.792;10.358;2023-03-14T08:16:54;12.40;99.90
22850;DHT22;11591;44.792;10.358;2023-03-14T08:19:20;12.50;99.90
22850;DHT22;11591;44.792;10.358;2023-03-14T08:21:46;12.60;99.90
22850;DHT22;11591;44.792;10.358;2023-03-14T08:24:14;12.70;99.90
22850;DHT22;11591;44.792;10.358;2023-03-14T08:26:43;12.70;99.90
22850;DHT22;11591;44.792;10.358;2023-03-14T08:29:10;12.80;99.90
22850;DHT22;11591;44.792;10.358;2023-03-14T08:31:35;12.90;99.90
22850;DHT22;11591;44.792;10.358;2023-03-14T08:34:02;13.00;99.90
22850;DHT22;11591;44.792;10.358;2023-03-14T08:36:27;13.10;99.90
22850;DHT22;11591;44.792;10.358;2023-03-14T08:38:53;13.10;99.90
22850;DHT22;11591;44.792;10.358;2023-03-14T08:41:20;13.30;99.90
22850;DHT22;11591;44.792;10.358;2023-03-14T08:43:46;13.30;99.90
22850;DHT22;11591;44.792;10.358;2023-03-14T08:46:11;13.40;99.90
22850;DHT22;11591;44.792;10.358;2023-03-14T08:48:37;13.40;99.90
22850;DHT22;11591;44.792;10.358;2023-03-14T08:51:07;13.40;99.90
22850;DHT22;11591;44.792;10.358;2023-03-14T08:53:33;13.50;99.90
22850;DHT22;11591;44.792;10.358;2023-03-14T08:55:59;13.60;99.90
22850;DHT22;11591;44.792;10.358;2023-03-14T08:58:25;13.60;99.90
22850;DHT22;11591;44.792;10.358;2023-03-14T09:00:51;13.60;99.90
22850;DHT22;11591;44.792;10.358;2023-03-14T09:03:16;13.70;99.90
22850;DHT22;11591;44.792;10.358;2023-03-14T09:05:42;13.70;99.90
22850;DHT22;11591;44.792;10.358;2023-03-14T09:08:08;13.80;99.90
22850;DHT22;11591;44.792;10.358;2023-03-14T09:10:34;13.80;99.90
22850;DHT22;11591;44.792;10.358;2023-03-14T09:13:00;13.90;99.90
22850;DHT22;11591;44.792;10.358;2023-03-14T09:15:26;14.00;99.90
22850;DHT22;11591;44.792;10.358;2023-03-14T09:17:51;14.00;99.90
22850;DHT22;11591;44.792;10.358;2023-03-14T09:20:17;14.10;99.90
22850;DHT22;11591;44.792;10.358;2023-03-14T09:22:43;14.20;99.90
22850;DHT22;11591;44.792;10.358;2023-03-14T09:25:09;14.20;99.90
22850;DHT22;11591;44.792;10.358;2023-03-14T09:27:36;14.20;99.90
22850;DHT22;11591;44.792;10.358;2023-03-14T09:30:03;14.10;99.90
22850;DHT22;11591;44.792;10.358;2023-03-14T09:32:30;14.10;99.90
22850;DHT22;11591;44.792;10.358;2023-03-14T09:34:57;14.00;99.90
22850;DHT22;11591;44.792;10.358;2023-03-14T09:37:23;13.80;99.90
22850;DHT22;11591;44.792;10.358;2023-03-14T09:39:48;13.80;99.90
22850;DHT22;11591;44.792;10.358;2023-03-14T09:42:17;13.70;99.90
22850;DHT22;11591;44.792;10.358;2023-03-14T09:44:56;13.70;99.90
22850;DHT22;11591;44.792;10.358;2023-03-14T09:47:25;13.70;99.90
22850;DHT22;11591;44.792;10.358;2023-03-14T09:49:51;13.70;99.90
22850;DHT22;11591;44.792;10.358;2023-03-14T09:52:39;13.70;99.90
22850;DHT22;11591;44.792;10.358;2023-03-14T09:55:20;13.50;99.90
22850;DHT22;11591;44.792;10.358;2023-03-14T09:57:48;13.60;99.90
22850;DHT22;11591;44.792;10.358;2023-03-14T10:00:21;13.70;99.90
22850;DHT22;11591;44.792;10.358;2023-03-14T10:02:55;13.70;99.90
22850;DHT22;11591;44.792;10.358;2023-03-14T10:05:24;13.80;99.90
22850;DHT22;11591;44.792;10.358;2023-03-14T10:07:50;13.80;99.90
22850;DHT22;11591;44.792;10.358;2023-03-14T10:10:19;13.80;99.90
22850;DHT22;11591;44.792;10.358;2023-03-14T10:12:47;13.80;99.90
22850;DHT22;11591;44.792;10.358;2023-03-14T10:15:15;13.90;99.90
22850;DHT22;11591;44.792;10.358;2023-03-14T10:17:49;14.00;99.90
22850;DHT22;11591;44.792;10.358;2023-03-14T10:20:32;13.90;99.90
22850;DHT22;11591;44.792;10.358;2023-03-14T10:23:04;13.80;99.90
22850;DHT22;11591;44.792;10.358;2023-03-14T10:25:35;13.90;99.90
22850;DHT22;11591;44.792;10.358;2023-03-14T10:28:03;13.80;99.90
22850;DHT22;11591;44.792;10.358;2023-03-14T10:30:45;13.90;99.90
22850;DHT22;11591;44.792;10.358;2023-03-14T10:33:31;13.90;99.90
22850;DHT22;11591;44.792;10.358;2023-03-14T10:38:33;14.10;99.90
22850;DHT22;11591;44.792;10.358;2023-03-14T10:41:00;14.30;99.90
22850;DHT22;11591;44.792;10.358;2023-03-14T10:43:31;14.30;99.90
22850;DHT22;11591;44.792;10.358;2023-03-14T10:46:06;14.10;99.90
22850;DHT22;11591;44.792;10.358;2023-03-14T10:48:54;14.00;99.90
22850;DHT22;11591;44.792;10.358;2023-03-14T10:53:59;13.80;99.90
22850;DHT22;11591;44.792;10.358;2023-03-14T10:56:27;13.80;99.90
22850;DHT22;11591;44.792;10.358;2023-03-14T10:58:57;13.90;99.90
22850;DHT22;11591;44.792;10.358;2023-03-14T11:07:48;14.40;99.90
22850;DHT22;11591;44.792;10.358;2023-03-14T11:15:19;14.80;99.90
22850;DHT22;11591;44.792;10.358;2023-03-14T11:26:35;14.60;99.90
22850;DHT22;11591;44.792;10.358;2023-03-14T11:32:24;14.40;99.90
22850;DHT22;11591;44.792;10.358;2023-03-14T11:34:54;14.20;99.90
22850;DHT22;11591;44.792;10.358;2023-03-14T11:37:33;14.10;99.90
22850;DHT22;11591;44.792;10.358;2023-03-14T11:42:50;14.00;99.90
22850;DHT22;11591;44.792;10.358;2023-03-14T11:45:29;14.00;99.90
22850;DHT22;11591;44.792;10.358;2023-03-14T11:50:32;14.20;99.90
22850;DHT22;11591;44.792;10.358;2023-03-14T11:53:11;14.10;99.90
22850;DHT22;11591;44.792;10.358;2023-03-14T11:55:42;14.30;99.90
22850;DHT22;11591;44.792;10.358;2023-03-14T11:58:31;14.50;99.90
22850;DHT22;11591;44.792;10.358;2023-03-14T12:01:05;14.70;99.90
22850;DHT22;11591;44.792;10.358;2023-03-14T12:03:35;14.90;99.90
22850;DHT22;11591;44.792;10.358;2023-03-14T12:13:40;15.40;99.90
22850;DHT22;11591;44.792;10.358;2023-03-14T12:16:25;15.30;99.90
22850;DHT22;11591;44.792;10.358;2023-03-14T12:18:52;15.10;99.90
22850;DHT22;11591;44.792;10.358;2023-03-14T12:21:19;15.00;99.90
22850;DHT22;11591;44.792;10.358;2023-03-14T12:23:53;15.10;99.90
22850;DHT22;11591;44.792;10.358;2023-03-14T12:26:22;14.90;99.90
22850;DHT22;11591;44.792;10.358;2023-03-14T12:29:15;15.00;99.90
22850;DHT22;11591;44.792;10.358;2023-03-14T12:31:38;15.20;99.90
22850;DHT22;11591;44.792;10.358;2023-03-14T12:37:04;15.50;99.90
22850;DHT22;11591;44.792;10.358;2023-03-14T12:39:37;15.40;99.90
22850;DHT22;11591;44.792;10.358;2023-03-14T12:42:13;15.20;99.90
22850;DHT22;11591;44.792;10.358;2023-03-14T12:44:50;15.20;99.90
22850;DHT22;11591;44.792;10.358;2023-03-14T12:49:50;15.20;99.90
22850;DHT22;11591;44.792;10.358;2023-03-14T12:52:33;15.30;99.90
22850;DHT22;11591;44.792;10.358;2023-03-14T13:00:21;15.40;99.90
22850;DHT22;11591;44.792;10.358;2023-03-14T13:02:49;15.50;99.90
22850;DHT22;11591;44.792;10.358;2023-03-14T13:05:21;15.30;99.90
22850;DHT22;11591;44.792;10.358;2023-03-14T13:10:20;15.20;99.90
22850;DHT22;11591;44.792;10.358;2023-03-14T13:13:19;15.40;99.90
22850;DHT22;11591;44.792;10.358;2023-03-14T13:15:47;15.40;99.90
22850;DHT22;11591;44.792;10.358;2023-03-14T13:18:29;15.50;99.90
22850;DHT22;11591;44.792;10.358;2023-03-14T13:21:03;15.50;99.90
22850;DHT22;11591;44.792;10.358;2023-03-14T13:23:31;15.50;99.90
22850;DHT22;11591;44.792;10.358;2023-03-14T13:25:59;15.30;99.90
22850;DHT22;11591;44.792;10.358;2023-03-14T13:28:26;15.30;99.90
22850;DHT22;11591;44.792;10.358;2023-03-14T13:31:01;16.00;99.90
22850;DHT22;11591;44.792;10.358;2023-03-14T13:33:27;16.20;99.90
22850;DHT22;11591;44.792;10.358;2023-03-14T13:35:59;17.10;99.90
22850;DHT22;11591;44.792;10.358;2023-03-14T13:38:30;17.40;99.90
22850;DHT22;11591;44.792;10.358;2023-03-14T13:41:00;18.20;99.90
22850;DHT22;11591;44.792;10.358;2023-03-14T13:43:32;18.00;99.90
22850;DHT22;11591;44.792;10.358;2023-03-14T13:46:05;18.10;99.90
22850;DHT22;11591;44.792;10.358;2023-03-14T13:48:35;17.60;99.90
22850;DHT22;11591;44.792;10.358;2023-03-14T13:51:12;17.70;99.90
22850;DHT22;11591;44.792;10.358;2023-03-14T13:53:53;18.10;99.90
22850;DHT22;11591;44.792;10.358;2023-03-14T13:56:21;17.60;99.90
22850;DHT22;11591;44.792;10.358;2023-03-14T13:58:47;17.50;99.90
22850;DHT22;11591;44.792;10.358;2023-03-14T14:01:22;17.50;99.90
22850;DHT22;11591;44.792;10.358;2023-03-14T14:03:53;17.70;99.90
22850;DHT22;11591;44.792;10.358;2023-03-14T14:06:33;18.20;99.90
22850;DHT22;11591;44.792;10.358;2023-03-14T14:09:03;18.40;99.90
22850;DHT22;11591;44.792;10.358;2023-03-14T14:14:38;18.50;99.90
22850;DHT22;11591;44.792;10.358;2023-03-14T14:17:21;18.20;99.90
22850;DHT22;11591;44.792;10.358;2023-03-14T14:19:50;18.00;99.90
22850;DHT22;11591;44.792;10.358;2023-03-14T14:22:18;17.70;99.90
22850;DHT22;11591;44.792;10.358;2023-03-14T14:24:44;17.30;99.90
22850;DHT22;11591;44.792;10.358;2023-03-14T14:27:26;16.80;99.90
22850;DHT22;11591;44.792;10.358;2023-03-14T14:30:02;16.70;99.90
22850;DHT22;11591;44.792;10.358;2023-03-14T14:32:36;16.40;99.90
22850;DHT22;11591;44.792;10.358;2023-03-14T14:35:02;16.40;99.90
22850;DHT22;11591;44.792;10.358;2023-03-14T14:37:34;16.30;99.90
22850;DHT22;11591;44.792;10.358;2023-03-14T14:40:19;16.20;99.90
22850;DHT22;11591;44.792;10.358;2023-03-14T14:42:46;16.20;99.90
22850;DHT22;11591;44.792;10.358;2023-03-14T14:45:23;16.10;99.90
22850;DHT22;11591;44.792;10.358;2023-03-14T14:47:52;16.10;99.90
22850;DHT22;11591;44.792;10.358;2023-03-14T14:50:31;16.00;99.90
22850;DHT22;11591;44.792;10.358;2023-03-14T14:52:59;15.90;99.90
22850;DHT22;11591;44.792;10.358;2023-03-14T14:55:39;15.90;99.90
22850;DHT22;11591;44.792;10.358;2023-03-14T15:03:18;16.20;99.90
22850;DHT22;11591;44.792;10.358;2023-03-14T15:05:44;16.30;99.90
22850;DHT22;11591;44.792;10.358;2023-03-14T15:08:30;16.50;99.90
22850;DHT22;11591;44.792;10.358;2023-03-14T15:10:57;16.80;99.90
22850;DHT22;11591;44.792;10.358;2023-03-14T15:13:23;17.40;99.90
22850;DHT22;11591;44.792;10.358;2023-03-14T15:15:50;17.70;99.90
22850;DHT22;11591;44.792;10.358;2023-03-14T15:18:25;18.10;99.90
22850;DHT22;11591;44.792;10.358;2023-03-14T15:20:51;18.70;99.90
22850;DHT22;11591;44.792;10.358;2023-03-14T15:23:19;19.20;99.90
22850;DHT22;11591;44.792;10.358;2023-03-14T15:25:45;19.60;99.90
22850;DHT22;11591;44.792;10.358;2023-03-14T15:28:18;19.80;99.90
22850;DHT22;11591;44.792;10.358;2023-03-14T15:30:48;19.30;99.90
22850;DHT22;11591;44.792;10.358;2023-03-14T15:33:15;19.10;99.90
22850;DHT22;11591;44.792;10.358;2023-03-14T15:35:41;18.40;99.90
22850;DHT22;11591;44.792;10.358;2023-03-14T15:38:11;18.00;99.90
22850;DHT22;11591;44.792;10.358;2023-03-14T15:40:39;17.80;99.90
22850;DHT22;11591;44.792;10.358;2023-03-14T15:43:04;17.90;99.90
22850;DHT22;11591;44.792;10.358;2023-03-14T15:45:30;17.80;99.90
22850;DHT22;11591;44.792;10.358;2023-03-14T15:47:56;17.60;99.90
22850;DHT22;11591;44.792;10.358;2023-03-14T15:50:22;17.40;99.90
22850;DHT22;11591;44.792;10.358;2023-03-14T15:52:48;17.60;99.90
22850;DHT22;11591;44.792;10.358;2023-03-14T15:55:14;17.30;99.90
22850;DHT22;11591;44.792;10.358;2023-03-14T15:57:42;17.30;99.90
22850;DHT22;11591;44.792;10.358;2023-03-14T16:00:12;17.20;99.90
22850;DHT22;11591;44.792;10.358;2023-03-14T16:02:39;16.90;99.90
22850;DHT22;11591;44.792;10.358;2023-03-14T16:05:08;16.60;99.90
22850;DHT22;11591;44.792;10.358;2023-03-14T16:07:34;16.50;99.90
22850;DHT22;11591;44.792;10.358;2023-03-14T16:10:00;16.60;99.90
22850;DHT22;11591;44.792;10.358;2023-03-14T16:12:26;16.60;99.90
22850;DHT22;11591;44.792;10.358;2023-03-14T16:14:51;16.60;99.90
22850;DHT22;11591;44.792;10.358;2023-03-14T16:17:17;16.60;99.90
22850;DHT22;11591;44.792;10.358;2023-03-14T16:19:43;16.40;99.90
22850;DHT22;11591;44.792;10.358;2023-03-14T16:22:09;16.40;99.90
22850;DHT22;11591;44.792;10.358;2023-03-14T16:24:35;16.20;99.90
22850;DHT22;11591;44.792;10.358;2023-03-14T16:27:00;16.20;99.90
22850;DHT22;11591;44.792;10.358;2023-03-14T16:29:26;16.20;99.90
22850;DHT22;11591;44.792;10.358;2023-03-14T16:31:52;16.30;99.90
22850;DHT22;11591;44.792;10.358;2023-03-14T16:34:18;16.30;99.90
22850;DHT22;11591;44.792;10.358;2023-03-14T16:36:44;16.30;99.90
22850;DHT22;11591;44.792;10.358;2023-03-14T16:39:09;16.30;99.90
22850;DHT22;11591;44.792;10.358;2023-03-14T16:41:35;16.20;99.90
22850;DHT22;11591;44.792;10.358;2023-03-14T16:44:01;16.10;99.90
22850;DHT22;11591;44.792;10.358;2023-03-14T16:46:28;16.00;99.90